Aviation Digital Data Service (ADDS)

Output produced by METARs form (0503 UTC 20 October 2017)
found at http://aviationweather.gov/adds/metars/
 
METAR text: KCVH 200450Z AUTO 00000KT 10SM 15/12 A2996 RMK A01
Conditions at: KCVH (HOLLISTER MUNI , CA, US) observed 0450 UTC 20 October 2017
Temperature: 15.0°C (59°F)
Dewpoint: 12.0°C (54°F) [RH = 82%]
Pressure (altimeter): 29.96 inches Hg (1014.6 mb)
Winds: calm
Visibility: 10 or more miles (16+ km)
Ceiling: unknown
Clouds: missing
Weather: automated observation with no human augmentation;
there may or may not be significant weather present at this time